sensor_id;sensor_type;location;lat;lon;timestamp;P1;durP1;ratioP1;P2;durP2;ratioP2
41903;SDS011;27586;51.124;4.182;2023-10-13T00:01:57;7.50;;;3.30;;
41903;SDS011;27586;51.124;4.182;2023-10-13T00:04:27;7.22;;;3.30;;
41903;SDS011;27586;51.124;4.182;2023-10-13T00:06:53;5.20;;;3.13;;
41903;SDS011;27586;51.124;4.182;2023-10-13T00:09:24;6.50;;;2.97;;
41903;SDS011;27586;51.124;4.182;2023-10-13T00:11:54;7.90;;;3.10;;
41903;SDS011;27586;51.124;4.182;2023-10-13T00:14:21;6.85;;;3.80;;
41903;SDS011;27586;51.124;4.182;2023-10-13T00:16:47;8.57;;;3.50;;
41903;SDS011;27586;51.124;4.182;2023-10-13T00:19:32;7.60;;;3.80;;
41903;SDS011;27586;51.124;4.182;2023-10-13T00:22:15;7.10;;;3.40;;
41903;SDS011;27586;51.124;4.182;2023-10-13T00:24:41;7.78;;;3.50;;
41903;SDS011;27586;51.124;4.182;2023-10-13T00:27:11;5.32;;;3.33;;
41903;SDS011;27586;51.124;4.182;2023-10-13T00:29:59;6.03;;;3.78;;
41903;SDS011;27586;51.124;4.182;2023-10-13T00:32:48;5.18;;;3.33;;
41903;SDS011;27586;51.124;4.182;2023-10-13T00:35:24;5.65;;;3.67;;
41903;SDS011;27586;51.124;4.182;2023-10-13T00:37:55;6.70;;;3.55;;
41903;SDS011;27586;51.124;4.182;2023-10-13T00:40:22;6.28;;;3.63;;
41903;SDS011;27586;51.124;4.182;2023-10-13T00:43:00;8.18;;;3.38;;
41903;SDS011;27586;51.124;4.182;2023-10-13T00:45:48;7.68;;;3.38;;
41903;SDS011;27586;51.124;4.182;2023-10-13T00:48:32;5.82;;;3.92;;
41903;SDS011;27586;51.124;4.182;2023-10-13T00:51:08;7.97;;;3.65;;
41903;SDS011;27586;51.124;4.182;2023-10-13T00:53:57;9.82;;;3.80;;
41903;SDS011;27586;51.124;4.182;2023-10-13T00:56:27;6.78;;;3.28;;
41903;SDS011;27586;51.124;4.182;2023-10-13T00:58:56;6.40;;;3.55;;
41903;SDS011;27586;51.124;4.182;2023-10-13T01:01:23;5.82;;;3.72;;
41903;SDS011;27586;51.124;4.182;2023-10-13T01:03:59;9.07;;;3.85;;
41903;SDS011;27586;51.124;4.182;2023-10-13T01:06:27;6.93;;;3.60;;
41903;SDS011;27586;51.124;4.182;2023-10-13T01:08:57;9.57;;;4.20;;
41903;SDS011;27586;51.124;4.182;2023-10-13T01:11:42;8.00;;;3.60;;
41903;SDS011;27586;51.124;4.182;2023-10-13T01:14:12;10.45;;;4.32;;
41903;SDS011;27586;51.124;4.182;2023-10-13T01:16:42;9.45;;;4.05;;
41903;SDS011;27586;51.124;4.182;2023-10-13T01:19:12;7.50;;;4.40;;
41903;SDS011;27586;51.124;4.182;2023-10-13T01:21:39;5.70;;;4.05;;
41903;SDS011;27586;51.124;4.182;2023-10-13T01:24:12;7.25;;;4.05;;
41903;SDS011;27586;51.124;4.182;2023-10-13T01:26:48;7.43;;;4.13;;
41903;SDS011;27586;51.124;4.182;2023-10-13T01:29:16;7.28;;;3.80;;
41903;SDS011;27586;51.124;4.182;2023-10-13T01:31:44;6.07;;;4.53;;
41903;SDS011;27586;51.124;4.182;2023-10-13T01:34:14;7.07;;;4.88;;
41903;SDS011;27586;51.124;4.182;2023-10-13T01:36:48;6.35;;;4.55;;
41903;SDS011;27586;51.124;4.182;2023-10-13T01:39:16;7.63;;;5.45;;
41903;SDS011;27586;51.124;4.182;2023-10-13T01:41:43;9.55;;;6.00;;
41903;SDS011;27586;51.124;4.182;2023-10-13T01:44:09;8.95;;;6.30;;
41903;SDS011;27586;51.124;4.182;2023-10-13T01:46:39;8.70;;;6.43;;
41903;SDS011;27586;51.124;4.182;2023-10-13T01:49:07;8.55;;;6.30;;
41903;SDS011;27586;51.124;4.182;2023-10-13T01:51:33;7.43;;;6.47;;
41903;SDS011;27586;51.124;4.182;2023-10-13T01:53:59;9.93;;;6.80;;
41903;SDS011;27586;51.124;4.182;2023-10-13T01:56:28;9.68;;;7.25;;
41903;SDS011;27586;51.124;4.182;2023-10-13T01:58:55;10.55;;;7.43;;
41903;SDS011;27586;51.124;4.182;2023-10-13T02:01:21;12.45;;;8.38;;
41903;SDS011;27586;51.124;4.182;2023-10-13T02:03:56;9.73;;;8.02;;
41903;SDS011;27586;51.124;4.182;2023-10-13T02:06:29;10.32;;;7.90;;
41903;SDS011;27586;51.124;4.182;2023-10-13T02:09:03;11.15;;;8.27;;
41903;SDS011;27586;51.124;4.182;2023-10-13T02:11:41;10.82;;;7.90;;
41903;SDS011;27586;51.124;4.182;2023-10-13T02:14:19;10.60;;;8.30;;
41903;SDS011;27586;51.124;4.182;2023-10-13T02:16:47;12.02;;;8.82;;
41903;SDS011;27586;51.124;4.182;2023-10-13T02:19:15;12.82;;;9.30;;
41903;SDS011;27586;51.124;4.182;2023-10-13T02:21:44;11.32;;;10.18;;
41903;SDS011;27586;51.124;4.182;2023-10-13T02:24:10;13.27;;;10.63;;
41903;SDS011;27586;51.124;4.182;2023-10-13T02:26:43;17.90;;;12.10;;
41903;SDS011;27586;51.124;4.182;2023-10-13T02:29:09;18.05;;;11.93;;
41903;SDS011;27586;51.124;4.182;2023-10-13T02:31:40;14.05;;;12.45;;
41903;SDS011;27586;51.124;4.182;2023-10-13T02:34:07;21.17;;;14.23;;
41903;SDS011;27586;51.124;4.182;2023-10-13T02:36:34;18.10;;;14.65;;
41903;SDS011;27586;51.124;4.182;2023-10-13T02:39:12;16.55;;;14.18;;
41903;SDS011;27586;51.124;4.182;2023-10-13T02:41:39;21.00;;;16.52;;
41903;SDS011;27586;51.124;4.182;2023-10-13T02:44:06;21.05;;;17.05;;
41903;SDS011;27586;51.124;4.182;2023-10-13T02:46:41;22.00;;;17.55;;
41903;SDS011;27586;51.124;4.182;2023-10-13T02:49:08;23.05;;;18.10;;
41903;SDS011;27586;51.124;4.182;2023-10-13T02:51:37;21.45;;;18.30;;
41903;SDS011;27586;51.124;4.182;2023-10-13T02:54:07;23.52;;;17.85;;
41903;SDS011;27586;51.124;4.182;2023-10-13T02:56:36;22.02;;;18.48;;
41903;SDS011;27586;51.124;4.182;2023-10-13T02:59:14;22.90;;;18.17;;
41903;SDS011;27586;51.124;4.182;2023-10-13T03:01:40;22.50;;;19.10;;
41903;SDS011;27586;51.124;4.182;2023-10-13T03:04:06;24.73;;;17.52;;
41903;SDS011;27586;51.124;4.182;2023-10-13T03:06:34;21.77;;;16.95;;
41903;SDS011;27586;51.124;4.182;2023-10-13T03:09:01;20.52;;;17.20;;
41903;SDS011;27586;51.124;4.182;2023-10-13T03:11:46;21.58;;;16.85;;
41903;SDS011;27586;51.124;4.182;2023-10-13T03:14:18;20.27;;;16.00;;
41903;SDS011;27586;51.124;4.182;2023-10-13T03:17:05;21.00;;;16.00;;
41903;SDS011;27586;51.124;4.182;2023-10-13T03:19:33;19.25;;;15.20;;
41903;SDS011;27586;51.124;4.182;2023-10-13T03:22:02;20.42;;;14.85;;
41903;SDS011;27586;51.124;4.182;2023-10-13T03:24:36;21.65;;;14.73;;
41903;SDS011;27586;51.124;4.182;2023-10-13T03:27:06;19.83;;;13.73;;
41903;SDS011;27586;51.124;4.182;2023-10-13T03:29:36;24.23;;;14.48;;
41903;SDS011;27586;51.124;4.182;2023-10-13T03:32:10;20.10;;;14.93;;
41903;SDS011;27586;51.124;4.182;2023-10-13T03:34:40;18.05;;;13.52;;
41903;SDS011;27586;51.124;4.182;2023-10-13T03:37:20;18.23;;;14.27;;
41903;SDS011;27586;51.124;4.182;2023-10-13T03:40:04;18.25;;;13.10;;
41903;SDS011;27586;51.124;4.182;2023-10-13T03:42:52;15.68;;;13.10;;
41903;SDS011;27586;51.124;4.182;2023-10-13T03:45:36;20.05;;;13.27;;
41903;SDS011;27586;51.124;4.182;2023-10-13T03:48:10;18.08;;;13.40;;
41903;SDS011;27586;51.124;4.182;2023-10-13T03:50:49;18.42;;;13.00;;
41903;SDS011;27586;51.124;4.182;2023-10-13T03:53:31;20.08;;;13.50;;
41903;SDS011;27586;51.124;4.182;2023-10-13T03:56:01;17.63;;;12.70;;
41903;SDS011;27586;51.124;4.182;2023-10-13T03:58:37;22.02;;;12.90;;
41903;SDS011;27586;51.124;4.182;2023-10-13T04:01:12;19.08;;;12.60;;
41903;SDS011;27586;51.124;4.182;2023-10-13T04:03:42;16.92;;;11.90;;
41903;SDS011;27586;51.124;4.182;2023-10-13T04:06:29;13.60;;;11.45;;
41903;SDS011;27586;51.124;4.182;2023-10-13T04:09:19;19.85;;;11.98;;
41903;SDS011;27586;51.124;4.182;2023-10-13T04:11:54;16.70;;;11.98;;
41903;SDS011;27586;51.124;4.182;2023-10-13T04:14:47;17.50;;;11.68;;
41903;SDS011;27586;51.124;4.182;2023-10-13T04:17:31;13.25;;;10.68;;
41903;SDS011;27586;51.124;4.182;2023-10-13T04:20:05;16.67;;;10.90;;
41903;SDS011;27586;51.124;4.182;2023-10-13T04:25:24;12.30;;;9.82;;
41903;SDS011;27586;51.124;4.182;2023-10-13T04:28:06;15.38;;;9.60;;
41903;SDS011;27586;51.124;4.182;2023-10-13T04:30:44;15.48;;;9.98;;
41903;SDS011;27586;51.124;4.182;2023-10-13T04:33:20;14.48;;;9.65;;
41903;SDS011;27586;51.124;4.182;2023-10-13T04:36:09;15.15;;;9.57;;
41903;SDS011;27586;51.124;4.182;2023-10-13T04:39:00;12.75;;;9.10;;
41903;SDS011;27586;51.124;4.182;2023-10-13T04:44:05;11.55;;;8.65;;
41903;SDS011;27586;51.124;4.182;2023-10-13T04:46:50;11.68;;;8.73;;
41903;SDS011;27586;51.124;4.182;2023-10-13T04:49:28;16.67;;;8.63;;
41903;SDS011;27586;51.124;4.182;2023-10-13T04:52:02;14.13;;;8.25;;
41903;SDS011;27586;51.124;4.182;2023-10-13T04:54:45;13.25;;;8.82;;
41903;SDS011;27586;51.124;4.182;2023-10-13T04:57:14;11.27;;;8.48;;
41903;SDS011;27586;51.124;4.182;2023-10-13T04:59:48;13.90;;;9.10;;
41903;SDS011;27586;51.124;4.182;2023-10-13T05:02:36;14.45;;;9.23;;
41903;SDS011;27586;51.124;4.182;2023-10-13T05:05:09;13.70;;;9.07;;
41903;SDS011;27586;51.124;4.182;2023-10-13T05:07:56;15.32;;;9.13;;
41903;SDS011;27586;51.124;4.182;2023-10-13T05:10:40;10.45;;;8.52;;
41903;SDS011;27586;51.124;4.182;2023-10-13T05:13:24;13.15;;;8.77;;
41903;SDS011;27586;51.124;4.182;2023-10-13T05:16:08;13.50;;;8.95;;
41903;SDS011;27586;51.124;4.182;2023-10-13T05:18:52;10.90;;;8.60;;
41903;SDS011;27586;51.124;4.182;2023-10-13T05:21:36;15.48;;;8.65;;
41903;SDS011;27586;51.124;4.182;2023-10-13T05:24:20;14.38;;;8.77;;
41903;SDS011;27586;51.124;4.182;2023-10-13T05:27:05;11.25;;;8.15;;
41903;SDS011;27586;51.124;4.182;2023-10-13T05:29:49;15.95;;;7.95;;
41903;SDS011;27586;51.124;4.182;2023-10-13T05:32:33;13.55;;;7.75;;
41903;SDS011;27586;51.124;4.182;2023-10-13T05:35:19;13.88;;;7.57;;
41903;SDS011;27586;51.124;4.182;2023-10-13T05:38:04;16.95;;;8.38;;
41903;SDS011;27586;51.124;4.182;2023-10-13T05:40:59;16.15;;;8.00;;
41903;SDS011;27586;51.124;4.182;2023-10-13T05:43:44;11.10;;;7.93;;
41903;SDS011;27586;51.124;4.182;2023-10-13T05:46:29;13.35;;;8.00;;
41903;SDS011;27586;51.124;4.182;2023-10-13T05:49:24;15.77;;;8.70;;
41903;SDS011;27586;51.124;4.182;2023-10-13T05:52:19;15.27;;;8.10;;
41903;SDS011;27586;51.124;4.182;2023-10-13T05:55:04;19.48;;;8.48;;
41903;SDS011;27586;51.124;4.182;2023-10-13T05:57:49;13.63;;;8.45;;
41903;SDS011;27586;51.124;4.182;2023-10-13T06:00:37;14.68;;;8.52;;
41903;SDS011;27586;51.124;4.182;2023-10-13T06:03:23;16.92;;;9.02;;
41903;SDS011;27586;51.124;4.182;2023-10-13T06:06:07;16.45;;;8.80;;
41903;SDS011;27586;51.124;4.182;2023-10-13T06:08:51;15.73;;;8.30;;
41903;SDS011;27586;51.124;4.182;2023-10-13T06:11:35;15.30;;;8.10;;
41903;SDS011;27586;51.124;4.182;2023-10-13T06:14:19;14.32;;;8.32;;
41903;SDS011;27586;51.124;4.182;2023-10-13T06:17:08;17.73;;;8.45;;
41903;SDS011;27586;51.124;4.182;2023-10-13T06:19:52;14.60;;;7.70;;
41903;SDS011;27586;51.124;4.182;2023-10-13T06:22:36;15.00;;;7.95;;
41903;SDS011;27586;51.124;4.182;2023-10-13T06:25:20;17.20;;;7.95;;
41903;SDS011;27586;51.124;4.182;2023-10-13T06:28:04;12.57;;;7.43;;
41903;SDS011;27586;51.124;4.182;2023-10-13T06:30:58;15.15;;;8.35;;
41903;SDS011;27586;51.124;4.182;2023-10-13T06:33:26;14.13;;;6.95;;
41903;SDS011;27586;51.124;4.182;2023-10-13T06:35:57;14.15;;;7.20;;
41903;SDS011;27586;51.124;4.182;2023-10-13T06:38:23;13.50;;;7.60;;
41903;SDS011;27586;51.124;4.182;2023-10-13T06:40:49;12.40;;;7.25;;
41903;SDS011;27586;51.124;4.182;2023-10-13T06:43:18;13.32;;;7.57;;
41903;SDS011;27586;51.124;4.182;2023-10-13T06:45:47;19.88;;;7.72;;
41903;SDS011;27586;51.124;4.182;2023-10-13T06:48:25;12.35;;;7.25;;
41903;SDS011;27586;51.124;4.182;2023-10-13T06:50:51;12.43;;;6.90;;
41903;SDS011;27586;51.124;4.182;2023-10-13T06:53:18;15.68;;;7.18;;
41903;SDS011;27586;51.124;4.182;2023-10-13T06:55:44;14.52;;;7.38;;
41903;SDS011;27586;51.124;4.182;2023-10-13T06:58:13;12.05;;;6.75;;
41903;SDS011;27586;51.124;4.182;2023-10-13T07:00:42;14.95;;;6.82;;
41903;SDS011;27586;51.124;4.182;2023-10-13T07:03:18;17.02;;;7.55;;
41903;SDS011;27586;51.124;4.182;2023-10-13T07:05:44;11.07;;;7.40;;
41903;SDS011;27586;51.124;4.182;2023-10-13T07:08:12;16.55;;;7.35;;
41903;SDS011;27586;51.124;4.182;2023-10-13T07:10:52;11.75;;;6.75;;
41903;SDS011;27586;51.124;4.182;2023-10-13T07:13:30;14.23;;;7.95;;
41903;SDS011;27586;51.124;4.182;2023-10-13T07:16:04;17.88;;;8.02;;
41903;SDS011;27586;51.124;4.182;2023-10-13T07:18:33;19.15;;;7.57;;
41903;SDS011;27586;51.124;4.182;2023-10-13T07:21:08;15.82;;;7.60;;
41903;SDS011;27586;51.124;4.182;2023-10-13T07:23:37;12.90;;;7.15;;
41903;SDS011;27586;51.124;4.182;2023-10-13T07:26:04;14.38;;;6.95;;
41903;SDS011;27586;51.124;4.182;2023-10-13T07:28:31;14.60;;;6.97;;
41903;SDS011;27586;51.124;4.182;2023-10-13T07:31:01;13.20;;;7.35;;
41903;SDS011;27586;51.124;4.182;2023-10-13T07:33:27;12.43;;;7.05;;
41903;SDS011;27586;51.124;4.182;2023-10-13T07:36:03;12.27;;;7.20;;
41903;SDS011;27586;51.124;4.182;2023-10-13T07:38:41;12.73;;;7.53;;
41903;SDS011;27586;51.124;4.182;2023-10-13T07:41:07;15.98;;;7.75;;
41903;SDS011;27586;51.124;4.182;2023-10-13T07:43:34;13.77;;;7.45;;
41903;SDS011;27586;51.124;4.182;2023-10-13T07:46:02;13.48;;;7.53;;
41903;SDS011;27586;51.124;4.182;2023-10-13T07:48:34;13.98;;;7.72;;
41903;SDS011;27586;51.124;4.182;2023-10-13T07:51:05;13.82;;;7.72;;
41903;SDS011;27586;51.124;4.182;2023-10-13T07:53:41;12.82;;;7.78;;
41903;SDS011;27586;51.124;4.182;2023-10-13T07:56:08;14.05;;;8.00;;
41903;SDS011;27586;51.124;4.182;2023-10-13T07:58:39;15.98;;;7.47;;
41903;SDS011;27586;51.124;4.182;2023-10-13T08:01:25;9.60;;;6.90;;
41903;SDS011;27586;51.124;4.182;2023-10-13T08:03:51;13.05;;;7.72;;
41903;SDS011;27586;51.124;4.182;2023-10-13T08:06:30;14.75;;;7.50;;
41903;SDS011;27586;51.124;4.182;2023-10-13T08:08:56;12.95;;;7.38;;
41903;SDS011;27586;51.124;4.182;2023-10-13T08:11:54;12.23;;;7.20;;
41903;SDS011;27586;51.124;4.182;2023-10-13T08:14:20;14.15;;;7.10;;
41903;SDS011;27586;51.124;4.182;2023-10-13T08:16:54;12.52;;;6.90;;
41903;SDS011;27586;51.124;4.182;2023-10-13T08:19:26;13.65;;;7.22;;
41903;SDS011;27586;51.124;4.182;2023-10-13T08:21:54;12.55;;;7.55;;
41903;SDS011;27586;51.124;4.182;2023-10-13T08:24:24;15.48;;;7.53;;
41903;SDS011;27586;51.124;4.182;2023-10-13T08:27:23;16.17;;;7.45;;
41903;SDS011;27586;51.124;4.182;2023-10-13T08:29:59;16.48;;;7.75;;
41903;SDS011;27586;51.124;4.182;2023-10-13T08:33:00;10.55;;;6.90;;
41903;SDS011;27586;51.124;4.182;2023-10-13T08:35:41;12.70;;;7.18;;
41903;SDS011;27586;51.124;4.182;2023-10-13T08:38:19;18.25;;;7.68;;
41903;SDS011;27586;51.124;4.182;2023-10-13T08:40:53;16.88;;;7.47;;
41903;SDS011;27586;51.124;4.182;2023-10-13T08:43:46;14.32;;;7.65;;
41903;SDS011;27586;51.124;4.182;2023-10-13T08:46:18;12.77;;;7.05;;
41903;SDS011;27586;51.124;4.182;2023-10-13T08:48:57;16.90;;;7.20;;
41903;SDS011;27586;51.124;4.182;2023-10-13T08:51:35;11.80;;;6.95;;
41903;SDS011;27586;51.124;4.182;2023-10-13T08:54:12;15.02;;;7.47;;
41903;SDS011;27586;51.124;4.182;2023-10-13T08:56:58;11.00;;;6.32;;
41903;SDS011;27586;51.124;4.182;2023-10-13T08:59:31;14.55;;;7.50;;
41903;SDS011;27586;51.124;4.182;2023-10-13T09:02:17;15.48;;;7.22;;
41903;SDS011;27586;51.124;4.182;2023-10-13T09:04:47;11.82;;;6.60;;
41903;SDS011;27586;51.124;4.182;2023-10-13T09:07:24;10.38;;;6.15;;
41903;SDS011;27586;51.124;4.182;2023-10-13T09:09:50;12.05;;;7.28;;
41903;SDS011;27586;51.124;4.182;2023-10-13T09:12:18;11.32;;;6.93;;
41903;SDS011;27586;51.124;4.182;2023-10-13T09:15:10;12.63;;;7.65;;
41903;SDS011;27586;51.124;4.182;2023-10-13T09:17:42;11.65;;;7.15;;
41903;SDS011;27586;51.124;4.182;2023-10-13T09:20:38;16.90;;;7.72;;
41903;SDS011;27586;51.124;4.182;2023-10-13T09:23:08;10.73;;;7.03;;
41903;SDS011;27586;51.124;4.182;2023-10-13T09:25:34;11.93;;;6.35;;
41903;SDS011;27586;51.124;4.182;2023-10-13T09:28:11;13.32;;;6.43;;
41903;SDS011;27586;51.124;4.182;2023-10-13T09:30:44;9.23;;;6.60;;
41903;SDS011;27586;51.124;4.182;2023-10-13T09:33:21;10.32;;;6.40;;
41903;SDS011;27586;51.124;4.182;2023-10-13T09:35:57;10.10;;;7.07;;
41903;SDS011;27586;51.124;4.182;2023-10-13T09:38:24;11.95;;;6.90;;
41903;SDS011;27586;51.124;4.182;2023-10-13T09:40:54;13.48;;;6.85;;
41903;SDS011;27586;51.124;4.182;2023-10-13T09:43:23;13.30;;;6.63;;
41903;SDS011;27586;51.124;4.182;2023-10-13T09:45:50;15.85;;;6.90;;
41903;SDS011;27586;51.124;4.182;2023-10-13T09:48:36;16.35;;;7.05;;
41903;SDS011;27586;51.124;4.182;2023-10-13T09:51:06;10.95;;;7.25;;
41903;SDS011;27586;51.124;4.182;2023-10-13T09:53:37;10.93;;;6.70;;
41903;SDS011;27586;51.124;4.182;2023-10-13T09:56:20;13.48;;;6.55;;
41903;SDS011;27586;51.124;4.182;2023-10-13T09:58:55;10.13;;;6.80;;
41903;SDS011;27586;51.124;4.182;2023-10-13T10:01:40;12.43;;;7.82;;
41903;SDS011;27586;51.124;4.182;2023-10-13T10:04:15;13.07;;;6.88;;
41903;SDS011;27586;51.124;4.182;2023-10-13T10:06:52;15.35;;;7.43;;
41903;SDS011;27586;51.124;4.182;2023-10-13T10:09:29;12.65;;;7.22;;
41903;SDS011;27586;51.124;4.182;2023-10-13T10:12:19;12.88;;;6.50;;
41903;SDS011;27586;51.124;4.182;2023-10-13T10:17:39;13.52;;;7.10;;
41903;SDS011;27586;51.124;4.182;2023-10-13T10:20:06;14.32;;;7.28;;
41903;SDS011;27586;51.124;4.182;2023-10-13T10:22:40;11.88;;;7.05;;
41903;SDS011;27586;51.124;4.182;2023-10-13T10:25:12;7.97;;;6.18;;
41903;SDS011;27586;51.124;4.182;2023-10-13T10:28:00;12.30;;;6.85;;
41903;SDS011;27586;51.124;4.182;2023-10-13T10:30:30;10.80;;;7.00;;
41903;SDS011;27586;51.124;4.182;2023-10-13T10:33:03;11.02;;;7.00;;
41903;SDS011;27586;51.124;4.182;2023-10-13T10:35:44;11.20;;;6.47;;
41903;SDS011;27586;51.124;4.182;2023-10-13T10:38:16;14.80;;;7.20;;
41903;SDS011;27586;51.124;4.182;2023-10-13T10:40:53;15.50;;;6.82;;
41903;SDS011;27586;51.124;4.182;2023-10-13T10:43:34;11.93;;;7.15;;
41903;SDS011;27586;51.124;4.182;2023-10-13T10:46:25;13.65;;;6.65;;
41903;SDS011;27586;51.124;4.182;2023-10-13T10:48:52;13.65;;;7.18;;
41903;SDS011;27586;51.124;4.182;2023-10-13T10:51:26;12.70;;;7.20;;
41903;SDS011;27586;51.124;4.182;2023-10-13T10:53:58;13.38;;;7.00;;
41903;SDS011;27586;51.124;4.182;2023-10-13T10:56:37;15.57;;;7.07;;
41903;SDS011;27586;51.124;4.182;2023-10-13T10:59:06;11.55;;;7.13;;
41903;SDS011;27586;51.124;4.182;2023-10-13T11:01:44;15.25;;;7.15;;
41903;SDS011;27586;51.124;4.182;2023-10-13T11:04:16;13.25;;;6.95;;
41903;SDS011;27586;51.124;4.182;2023-10-13T11:06:49;12.70;;;6.43;;
41903;SDS011;27586;51.124;4.182;2023-10-13T11:09:26;11.52;;;7.07;;
41903;SDS011;27586;51.124;4.182;2023-10-13T11:14:40;13.07;;;7.40;;
41903;SDS011;27586;51.124;4.182;2023-10-13T11:17:06;14.75;;;6.95;;
41903;SDS011;27586;51.124;4.182;2023-10-13T11:19:44;12.95;;;7.13;;
41903;SDS011;27586;51.124;4.182;2023-10-13T11:22:11;14.68;;;7.20;;
41903;SDS011;27586;51.124;4.182;2023-10-13T11:24:59;15.05;;;7.53;;
41903;SDS011;27586;51.124;4.182;2023-10-13T11:27:32;15.82;;;8.18;;
41903;SDS011;27586;51.124;4.182;2023-10-13T11:30:10;12.38;;;8.20;;
41903;SDS011;27586;51.124;4.182;2023-10-13T11:32:40;15.18;;;8.02;;
41903;SDS011;27586;51.124;4.182;2023-10-13T11:35:09;15.35;;;7.68;;
41903;SDS011;27586;51.124;4.182;2023-10-13T11:37:46;16.50;;;7.40;;
41903;SDS011;27586;51.124;4.182;2023-10-13T11:40:22;12.13;;;7.70;;
41903;SDS011;27586;51.124;4.182;2023-10-13T11:43:08;15.80;;;7.70;;
41903;SDS011;27586;51.124;4.182;2023-10-13T11:45:40;13.15;;;7.15;;
41903;SDS011;27586;51.124;4.182;2023-10-13T11:48:25;14.35;;;7.00;;
41903;SDS011;27586;51.124;4.182;2023-10-13T11:51:02;11.30;;;7.00;;
41903;SDS011;27586;51.124;4.182;2023-10-13T11:53:35;14.45;;;7.90;;
41903;SDS011;27586;51.124;4.182;2023-10-13T11:56:01;16.77;;;7.47;;
41903;SDS011;27586;51.124;4.182;2023-10-13T11:58:36;13.40;;;6.82;;
41903;SDS011;27586;51.124;4.182;2023-10-13T12:01:03;14.48;;;6.97;;
41903;SDS011;27586;51.124;4.182;2023-10-13T12:03:38;12.70;;;6.95;;
41903;SDS011;27586;51.124;4.182;2023-10-13T12:06:26;12.93;;;6.55;;
41903;SDS011;27586;51.124;4.182;2023-10-13T12:09:02;14.93;;;6.70;;
41903;SDS011;27586;51.124;4.182;2023-10-13T12:11:44;10.90;;;5.97;;
41903;SDS011;27586;51.124;4.182;2023-10-13T12:14:13;13.10;;;6.72;;
41903;SDS011;27586;51.124;4.182;2023-10-13T12:16:46;18.52;;;6.90;;
41903;SDS011;27586;51.124;4.182;2023-10-13T12:19:17;12.18;;;6.47;;
41903;SDS011;27586;51.124;4.182;2023-10-13T12:21:48;14.57;;;6.35;;
41903;SDS011;27586;51.124;4.182;2023-10-13T12:24:21;17.00;;;6.18;;
41903;SDS011;27586;51.124;4.182;2023-10-13T12:27:05;14.85;;;6.38;;
41903;SDS011;27586;51.124;4.182;2023-10-13T12:29:47;12.32;;;6.32;;
41903;SDS011;27586;51.124;4.182;2023-10-13T12:32:13;9.75;;;6.03;;
41903;SDS011;27586;51.124;4.182;2023-10-13T12:34:40;14.43;;;6.32;;
41903;SDS011;27586;51.124;4.182;2023-10-13T12:37:25;11.80;;;6.40;;
41903;SDS011;27586;51.124;4.182;2023-10-13T12:40:05;15.48;;;6.72;;
41903;SDS011;27586;51.124;4.182;2023-10-13T12:42:50;13.43;;;5.68;;
41903;SDS011;27586;51.124;4.182;2023-10-13T12:45:38;12.95;;;5.82;;
41903;SDS011;27586;51.124;4.182;2023-10-13T12:48:22;10.82;;;5.65;;
41903;SDS011;27586;51.124;4.182;2023-10-13T12:51:06;9.65;;;5.70;;
41903;SDS011;27586;51.124;4.182;2023-10-13T12:53:51;14.57;;;6.43;;
41903;SDS011;27586;51.124;4.182;2023-10-13T12:56:18;13.48;;;5.70;;
41903;SDS011;27586;51.124;4.182;2023-10-13T12:58:51;11.15;;;5.78;;
41903;SDS011;27586;51.124;4.182;2023-10-13T13:01:18;12.77;;;5.22;;
41903;SDS011;27586;51.124;4.182;2023-10-13T13:03:48;11.27;;;5.70;;
41903;SDS011;27586;51.124;4.182;2023-10-13T13:06:18;12.70;;;5.57;;
41903;SDS011;27586;51.124;4.182;2023-10-13T13:08:53;13.13;;;5.95;;
41903;SDS011;27586;51.124;4.182;2023-10-13T13:11:20;9.77;;;5.57;;
41903;SDS011;27586;51.124;4.182;2023-10-13T13:13:46;11.50;;;5.75;;
41903;SDS011;27586;51.124;4.182;2023-10-13T13:16:12;12.48;;;5.93;;
41903;SDS011;27586;51.124;4.182;2023-10-13T13:18:51;11.45;;;5.90;;
41903;SDS011;27586;51.124;4.182;2023-10-13T13:21:20;11.57;;;5.60;;
41903;SDS011;27586;51.124;4.182;2023-10-13T13:23:48;13.88;;;6.15;;
41903;SDS011;27586;51.124;4.182;2023-10-13T13:26:14;11.82;;;6.15;;
41903;SDS011;27586;51.124;4.182;2023-10-13T13:28:46;14.52;;;5.68;;
41903;SDS011;27586;51.124;4.182;2023-10-13T13:31:16;10.07;;;5.28;;
41903;SDS011;27586;51.124;4.182;2023-10-13T13:33:42;14.07;;;5.43;;
41903;SDS011;27586;51.124;4.182;2023-10-13T13:36:12;11.57;;;5.72;;
41903;SDS011;27586;51.124;4.182;2023-10-13T13:38:43;9.90;;;5.13;;
41903;SDS011;27586;51.124;4.182;2023-10-13T13:41:14;11.82;;;5.45;;
41903;SDS011;27586;51.124;4.182;2023-10-13T13:43:44;13.07;;;5.18;;
41903;SDS011;27586;51.124;4.182;2023-10-13T13:46:24;13.80;;;5.90;;
41903;SDS011;27586;51.124;4.182;2023-10-13T13:48:54;12.77;;;5.78;;
41903;SDS011;27586;51.124;4.182;2023-10-13T13:51:24;10.20;;;5.43;;
41903;SDS011;27586;51.124;4.182;2023-10-13T13:53:53;11.13;;;6.22;;
41903;SDS011;27586;51.124;4.182;2023-10-13T13:56:20;12.30;;;6.05;;
41903;SDS011;27586;51.124;4.182;2023-10-13T13:58:46;10.60;;;5.35;;
41903;SDS011;27586;51.124;4.182;2023-10-13T14:01:13;10.48;;;5.72;;
41903;SDS011;27586;51.124;4.182;2023-10-13T14:03:51;9.60;;;5.50;;
41903;SDS011;27586;51.124;4.182;2023-10-13T14:06:18;10.70;;;5.78;;
41903;SDS011;27586;51.124;4.182;2023-10-13T14:08:57;11.07;;;5.82;;
41903;SDS011;27586;51.124;4.182;2023-10-13T14:11:30;10.23;;;5.68;;
41903;SDS011;27586;51.124;4.182;2023-10-13T14:14:09;8.85;;;5.45;;
41903;SDS011;27586;51.124;4.182;2023-10-13T14:16:53;9.68;;;6.15;;
41903;SDS011;27586;51.124;4.182;2023-10-13T14:19:27;15.95;;;6.05;;
41903;SDS011;27586;51.124;4.182;2023-10-13T14:21:53;8.98;;;6.68;;
41903;SDS011;27586;51.124;4.182;2023-10-13T14:24:23;10.10;;;6.18;;
41903;SDS011;27586;51.124;4.182;2023-10-13T14:26:56;10.10;;;5.75;;
41903;SDS011;27586;51.124;4.182;2023-10-13T14:29:34;10.75;;;5.97;;
41903;SDS011;27586;51.124;4.182;2023-10-13T14:32:07;9.27;;;6.05;;
41903;SDS011;27586;51.124;4.182;2023-10-13T14:34:43;10.07;;;5.95;;
41903;SDS011;27586;51.124;4.182;2023-10-13T14:37:10;11.25;;;5.97;;
41903;SDS011;27586;51.124;4.182;2023-10-13T14:39:42;13.00;;;5.57;;
41903;SDS011;27586;51.124;4.182;2023-10-13T14:42:07;14.10;;;5.93;;
41903;SDS011;27586;51.124;4.182;2023-10-13T14:44:33;10.25;;;5.95;;
41903;SDS011;27586;51.124;4.182;2023-10-13T14:47:00;9.90;;;5.93;;
41903;SDS011;27586;51.124;4.182;2023-10-13T14:49:26;10.93;;;5.32;;
41903;SDS011;27586;51.124;4.182;2023-10-13T14:51:52;13.60;;;5.72;;
41903;SDS011;27586;51.124;4.182;2023-10-13T14:54:20;11.23;;;5.53;;
41903;SDS011;27586;51.124;4.182;2023-10-13T14:56:58;12.10;;;5.45;;
41903;SDS011;27586;51.124;4.182;2023-10-13T14:59:27;11.52;;;5.65;;
41903;SDS011;27586;51.124;4.182;2023-10-13T15:01:57;11.18;;;5.25;;
41903;SDS011;27586;51.124;4.182;2023-10-13T15:04:29;11.48;;;5.20;;
41903;SDS011;27586;51.124;4.182;2023-10-13T15:06:58;10.00;;;5.80;;
41903;SDS011;27586;51.124;4.182;2023-10-13T15:09:28;11.38;;;5.60;;
41903;SDS011;27586;51.124;4.182;2023-10-13T15:11:56;8.50;;;5.22;;
41903;SDS011;27586;51.124;4.182;2023-10-13T15:14:22;10.80;;;5.30;;
41903;SDS011;27586;51.124;4.182;2023-10-13T15:16:48;11.57;;;5.75;;
41903;SDS011;27586;51.124;4.182;2023-10-13T15:19:14;13.60;;;5.53;;
41903;SDS011;27586;51.124;4.182;2023-10-13T15:21:41;11.75;;;5.82;;
41903;SDS011;27586;51.124;4.182;2023-10-13T15:24:08;13.38;;;5.93;;
41903;SDS011;27586;51.124;4.182;2023-10-13T15:26:46;12.43;;;6.10;;
41903;SDS011;27586;51.124;4.182;2023-10-13T15:31:41;12.98;;;5.90;;
41903;SDS011;27586;51.124;4.182;2023-10-13T15:34:19;13.20;;;6.00;;